sensor_id;sensor_type;location;lat;lon;timestamp;P1;durP1;ratioP1;P2;durP2;ratioP2
33022;SDS011;19390;51.460;5.710;2023-04-24T00:00:23;22.30;;;16.80;;
33022;SDS011;19390;51.460;5.710;2023-04-24T00:02:49;23.67;;;17.95;;
33022;SDS011;19390;51.460;5.710;2023-04-24T00:05:15;22.85;;;17.45;;
33022;SDS011;19390;51.460;5.710;2023-04-24T00:07:43;27.17;;;18.48;;
33022;SDS011;19390;51.460;5.710;2023-04-24T00:10:10;22.55;;;17.20;;
33022;SDS011;19390;51.460;5.710;2023-04-24T00:12:36;26.10;;;18.85;;
33022;SDS011;19390;51.460;5.710;2023-04-24T00:15:03;26.80;;;18.73;;
33022;SDS011;19390;51.460;5.710;2023-04-24T00:17:29;25.38;;;17.65;;
33022;SDS011;19390;51.460;5.710;2023-04-24T00:19:55;23.20;;;17.40;;
33022;SDS011;19390;51.460;5.710;2023-04-24T00:22:24;21.17;;;16.50;;
33022;SDS011;19390;51.460;5.710;2023-04-24T00:24:50;30.23;;;17.27;;
33022;SDS011;19390;51.460;5.710;2023-04-24T00:27:15;26.42;;;17.73;;
33022;SDS011;19390;51.460;5.710;2023-04-24T00:29:41;24.60;;;16.60;;
33022;SDS011;19390;51.460;5.710;2023-04-24T00:32:06;26.20;;;17.13;;
33022;SDS011;19390;51.460;5.710;2023-04-24T00:34:32;23.25;;;15.93;;
33022;SDS011;19390;51.460;5.710;2023-04-24T00:36:58;19.55;;;14.77;;
33022;SDS011;19390;51.460;5.710;2023-04-24T00:39:23;21.45;;;15.27;;
33022;SDS011;19390;51.460;5.710;2023-04-24T00:41:49;22.98;;;16.38;;
33022;SDS011;19390;51.460;5.710;2023-04-24T00:44:15;27.02;;;16.27;;
33022;SDS011;19390;51.460;5.710;2023-04-24T00:46:42;23.08;;;17.08;;
33022;SDS011;19390;51.460;5.710;2023-04-24T00:49:07;26.15;;;17.33;;
33022;SDS011;19390;51.460;5.710;2023-04-24T00:51:33;28.70;;;18.17;;
33022;SDS011;19390;51.460;5.710;2023-04-24T00:53:59;21.73;;;17.00;;
33022;SDS011;19390;51.460;5.710;2023-04-24T00:56:25;25.38;;;17.13;;
33022;SDS011;19390;51.460;5.710;2023-04-24T00:58:51;26.05;;;16.73;;
33022;SDS011;19390;51.460;5.710;2023-04-24T01:01:18;24.88;;;16.63;;
33022;SDS011;19390;51.460;5.710;2023-04-24T01:03:45;24.20;;;16.02;;
33022;SDS011;19390;51.460;5.710;2023-04-24T01:06:11;29.48;;;18.73;;
33022;SDS011;19390;51.460;5.710;2023-04-24T01:08:38;31.10;;;19.00;;
33022;SDS011;19390;51.460;5.710;2023-04-24T01:11:05;26.75;;;19.27;;
33022;SDS011;19390;51.460;5.710;2023-04-24T01:13:31;27.48;;;18.52;;
33022;SDS011;19390;51.460;5.710;2023-04-24T01:15:58;31.33;;;18.95;;
33022;SDS011;19390;51.460;5.710;2023-04-24T01:18:23;28.98;;;18.13;;
33022;SDS011;19390;51.460;5.710;2023-04-24T01:20:50;31.15;;;19.52;;
33022;SDS011;19390;51.460;5.710;2023-04-24T01:23:17;27.50;;;19.92;;
33022;SDS011;19390;51.460;5.710;2023-04-24T01:25:43;31.70;;;21.30;;
33022;SDS011;19390;51.460;5.710;2023-04-24T01:28:09;29.70;;;20.48;;
33022;SDS011;19390;51.460;5.710;2023-04-24T01:30:35;31.83;;;21.23;;
33022;SDS011;19390;51.460;5.710;2023-04-24T01:33:01;34.53;;;21.80;;
33022;SDS011;19390;51.460;5.710;2023-04-24T01:35:27;38.58;;;23.27;;
33022;SDS011;19390;51.460;5.710;2023-04-24T01:37:53;38.03;;;22.35;;
33022;SDS011;19390;51.460;5.710;2023-04-24T01:40:19;34.05;;;22.55;;
33022;SDS011;19390;51.460;5.710;2023-04-24T01:42:44;37.25;;;22.05;;
33022;SDS011;19390;51.460;5.710;2023-04-24T01:45:11;32.47;;;22.33;;
33022;SDS011;19390;51.460;5.710;2023-04-24T01:47:37;33.33;;;21.48;;
33022;SDS011;19390;51.460;5.710;2023-04-24T01:50:04;31.85;;;22.83;;
33022;SDS011;19390;51.460;5.710;2023-04-24T01:52:30;36.05;;;22.38;;
33022;SDS011;19390;51.460;5.710;2023-04-24T01:54:56;33.97;;;21.73;;
33022;SDS011;19390;51.460;5.710;2023-04-24T01:57:25;35.42;;;23.65;;
33022;SDS011;19390;51.460;5.710;2023-04-24T01:59:51;37.85;;;23.27;;
33022;SDS011;19390;51.460;5.710;2023-04-24T02:02:16;37.13;;;24.02;;
33022;SDS011;19390;51.460;5.710;2023-04-24T02:04:42;37.92;;;25.25;;
33022;SDS011;19390;51.460;5.710;2023-04-24T02:07:08;39.30;;;24.83;;
33022;SDS011;19390;51.460;5.710;2023-04-24T02:09:33;36.50;;;23.35;;
33022;SDS011;19390;51.460;5.710;2023-04-24T02:11:59;35.25;;;23.27;;
33022;SDS011;19390;51.460;5.710;2023-04-24T02:14:25;39.13;;;23.13;;
33022;SDS011;19390;51.460;5.710;2023-04-24T02:16:51;37.15;;;24.63;;
33022;SDS011;19390;51.460;5.710;2023-04-24T02:19:16;33.10;;;22.77;;
33022;SDS011;19390;51.460;5.710;2023-04-24T02:21:42;39.58;;;24.75;;
33022;SDS011;19390;51.460;5.710;2023-04-24T02:24:07;35.70;;;24.65;;
33022;SDS011;19390;51.460;5.710;2023-04-24T02:26:33;36.55;;;24.65;;
33022;SDS011;19390;51.460;5.710;2023-04-24T02:28:59;34.85;;;23.02;;
33022;SDS011;19390;51.460;5.710;2023-04-24T02:31:24;37.08;;;23.33;;
33022;SDS011;19390;51.460;5.710;2023-04-24T02:33:50;33.45;;;22.38;;
33022;SDS011;19390;51.460;5.710;2023-04-24T02:36:16;36.88;;;22.77;;
33022;SDS011;19390;51.460;5.710;2023-04-24T02:38:41;42.83;;;22.50;;
33022;SDS011;19390;51.460;5.710;2023-04-24T02:41:07;34.97;;;23.40;;
33022;SDS011;19390;51.460;5.710;2023-04-24T02:43:33;31.63;;;23.30;;
33022;SDS011;19390;51.460;5.710;2023-04-24T02:45:59;33.20;;;23.00;;
33022;SDS011;19390;51.460;5.710;2023-04-24T02:48:24;32.00;;;21.77;;
33022;SDS011;19390;51.460;5.710;2023-04-24T02:50:50;32.08;;;22.58;;
33022;SDS011;19390;51.460;5.710;2023-04-24T02:53:16;33.53;;;22.42;;
33022;SDS011;19390;51.460;5.710;2023-04-24T02:55:42;36.78;;;22.95;;
33022;SDS011;19390;51.460;5.710;2023-04-24T02:58:10;32.53;;;21.95;;
33022;SDS011;19390;51.460;5.710;2023-04-24T03:00:37;34.45;;;21.73;;
33022;SDS011;19390;51.460;5.710;2023-04-24T03:03:03;31.13;;;22.52;;
33022;SDS011;19390;51.460;5.710;2023-04-24T03:05:30;29.92;;;20.90;;
33022;SDS011;19390;51.460;5.710;2023-04-24T03:07:56;31.45;;;20.63;;
33022;SDS011;19390;51.460;5.710;2023-04-24T03:10:22;27.60;;;19.88;;
33022;SDS011;19390;51.460;5.710;2023-04-24T03:12:47;27.75;;;20.50;;
33022;SDS011;19390;51.460;5.710;2023-04-24T03:15:13;33.35;;;20.13;;
33022;SDS011;19390;51.460;5.710;2023-04-24T03:17:39;31.45;;;18.85;;
33022;SDS011;19390;51.460;5.710;2023-04-24T03:20:04;23.83;;;19.02;;
33022;SDS011;19390;51.460;5.710;2023-04-24T03:22:31;27.50;;;18.35;;
33022;SDS011;19390;51.460;5.710;2023-04-24T03:24:57;25.38;;;17.38;;
33022;SDS011;19390;51.460;5.710;2023-04-24T03:27:23;33.83;;;18.38;;
33022;SDS011;19390;51.460;5.710;2023-04-24T03:29:49;22.92;;;17.27;;
33022;SDS011;19390;51.460;5.710;2023-04-24T03:32:18;30.08;;;18.63;;
33022;SDS011;19390;51.460;5.710;2023-04-24T03:34:44;30.38;;;18.55;;
33022;SDS011;19390;51.460;5.710;2023-04-24T03:37:10;28.45;;;17.55;;
33022;SDS011;19390;51.460;5.710;2023-04-24T03:39:35;28.38;;;17.88;;
33022;SDS011;19390;51.460;5.710;2023-04-24T03:42:01;22.77;;;17.35;;
33022;SDS011;19390;51.460;5.710;2023-04-24T03:44:26;31.58;;;18.25;;
33022;SDS011;19390;51.460;5.710;2023-04-24T03:46:52;26.42;;;17.25;;
33022;SDS011;19390;51.460;5.710;2023-04-24T03:49:18;27.08;;;17.70;;
33022;SDS011;19390;51.460;5.710;2023-04-24T03:51:43;22.73;;;17.92;;
33022;SDS011;19390;51.460;5.710;2023-04-24T03:54:09;26.08;;;18.17;;
33022;SDS011;19390;51.460;5.710;2023-04-24T03:56:35;23.98;;;17.10;;
33022;SDS011;19390;51.460;5.710;2023-04-24T03:59:00;24.58;;;17.58;;
33022;SDS011;19390;51.460;5.710;2023-04-24T04:01:27;26.73;;;17.38;;
33022;SDS011;19390;51.460;5.710;2023-04-24T04:03:53;31.00;;;16.90;;
33022;SDS011;19390;51.460;5.710;2023-04-24T04:06:18;23.65;;;16.02;;
33022;SDS011;19390;51.460;5.710;2023-04-24T04:08:46;22.33;;;16.52;;
33022;SDS011;19390;51.460;5.710;2023-04-24T04:11:12;19.35;;;15.90;;
33022;SDS011;19390;51.460;5.710;2023-04-24T04:13:37;22.52;;;16.13;;
33022;SDS011;19390;51.460;5.710;2023-04-24T04:16:03;20.70;;;15.18;;
33022;SDS011;19390;51.460;5.710;2023-04-24T04:18:29;20.45;;;15.57;;
33022;SDS011;19390;51.460;5.710;2023-04-24T04:20:54;24.48;;;16.52;;
33022;SDS011;19390;51.460;5.710;2023-04-24T04:23:21;24.90;;;17.23;;
33022;SDS011;19390;51.460;5.710;2023-04-24T04:25:47;23.65;;;16.00;;
33022;SDS011;19390;51.460;5.710;2023-04-24T04:28:13;20.92;;;16.55;;
33022;SDS011;19390;51.460;5.710;2023-04-24T04:30:38;23.58;;;16.85;;
33022;SDS011;19390;51.460;5.710;2023-04-24T04:33:05;23.25;;;16.60;;
33022;SDS011;19390;51.460;5.710;2023-04-24T04:35:30;20.83;;;16.63;;
33022;SDS011;19390;51.460;5.710;2023-04-24T04:37:56;23.27;;;18.27;;
33022;SDS011;19390;51.460;5.710;2023-04-24T04:40:23;22.00;;;17.02;;
33022;SDS011;19390;51.460;5.710;2023-04-24T04:42:49;23.65;;;17.45;;
33022;SDS011;19390;51.460;5.710;2023-04-24T04:45:17;21.05;;;17.70;;
33022;SDS011;19390;51.460;5.710;2023-04-24T04:47:43;27.92;;;17.52;;
33022;SDS011;19390;51.460;5.710;2023-04-24T04:50:09;22.40;;;15.60;;
33022;SDS011;19390;51.460;5.710;2023-04-24T04:52:35;24.88;;;15.98;;
33022;SDS011;19390;51.460;5.710;2023-04-24T04:55:01;28.67;;;17.38;;
33022;SDS011;19390;51.460;5.710;2023-04-24T04:57:27;22.92;;;16.20;;
33022;SDS011;19390;51.460;5.710;2023-04-24T04:59:52;23.23;;;16.27;;
33022;SDS011;19390;51.460;5.710;2023-04-24T05:02:18;23.27;;;16.35;;
33022;SDS011;19390;51.460;5.710;2023-04-24T05:04:44;28.85;;;17.65;;
33022;SDS011;19390;51.460;5.710;2023-04-24T05:07:10;24.42;;;17.90;;
33022;SDS011;19390;51.460;5.710;2023-04-24T05:09:36;25.95;;;18.20;;
33022;SDS011;19390;51.460;5.710;2023-04-24T05:12:02;26.08;;;18.60;;
33022;SDS011;19390;51.460;5.710;2023-04-24T05:14:28;23.67;;;18.08;;
33022;SDS011;19390;51.460;5.710;2023-04-24T05:16:53;22.25;;;16.42;;
33022;SDS011;19390;51.460;5.710;2023-04-24T05:19:19;24.45;;;16.52;;
33022;SDS011;19390;51.460;5.710;2023-04-24T05:21:45;24.98;;;16.10;;
33022;SDS011;19390;51.460;5.710;2023-04-24T05:24:10;21.65;;;16.58;;
33022;SDS011;19390;51.460;5.710;2023-04-24T05:26:36;25.65;;;16.48;;
33022;SDS011;19390;51.460;5.710;2023-04-24T05:29:02;18.98;;;14.70;;
33022;SDS011;19390;51.460;5.710;2023-04-24T05:31:28;18.70;;;14.18;;
33022;SDS011;19390;51.460;5.710;2023-04-24T05:33:54;15.57;;;12.27;;
33022;SDS011;19390;51.460;5.710;2023-04-24T05:36:20;17.20;;;12.65;;
33022;SDS011;19390;51.460;5.710;2023-04-24T05:38:46;13.65;;;11.13;;
33022;SDS011;19390;51.460;5.710;2023-04-24T05:41:11;13.30;;;9.88;;
33022;SDS011;19390;51.460;5.710;2023-04-24T05:43:37;9.93;;;8.70;;
33022;SDS011;19390;51.460;5.710;2023-04-24T05:46:02;6.90;;;6.20;;
33022;SDS011;19390;51.460;5.710;2023-04-24T05:48:28;8.27;;;6.65;;
33022;SDS011;19390;51.460;5.710;2023-04-24T05:50:53;8.93;;;5.80;;
33022;SDS011;19390;51.460;5.710;2023-04-24T05:53:19;8.23;;;5.50;;
33022;SDS011;19390;51.460;5.710;2023-04-24T05:55:45;6.18;;;5.30;;
33022;SDS011;19390;51.460;5.710;2023-04-24T05:58:11;7.85;;;5.63;;
33022;SDS011;19390;51.460;5.710;2023-04-24T06:00:37;9.50;;;4.18;;
33022;SDS011;19390;51.460;5.710;2023-04-24T06:03:04;10.52;;;5.75;;
33022;SDS011;19390;51.460;5.710;2023-04-24T06:05:30;9.15;;;4.80;;
33022;SDS011;19390;51.460;5.710;2023-04-24T06:07:56;7.10;;;4.25;;
33022;SDS011;19390;51.460;5.710;2023-04-24T06:10:21;6.43;;;3.50;;
33022;SDS011;19390;51.460;5.710;2023-04-24T06:12:47;5.93;;;2.67;;
33022;SDS011;19390;51.460;5.710;2023-04-24T06:15:12;4.40;;;3.28;;
33022;SDS011;19390;51.460;5.710;2023-04-24T06:17:38;7.40;;;3.53;;
33022;SDS011;19390;51.460;5.710;2023-04-24T06:20:04;3.92;;;2.60;;
33022;SDS011;19390;51.460;5.710;2023-04-24T06:22:31;3.47;;;2.30;;
33022;SDS011;19390;51.460;5.710;2023-04-24T06:24:57;6.22;;;2.53;;
33022;SDS011;19390;51.460;5.710;2023-04-24T06:27:23;4.28;;;2.60;;
33022;SDS011;19390;51.460;5.710;2023-04-24T06:29:48;4.82;;;2.53;;
33022;SDS011;19390;51.460;5.710;2023-04-24T06:32:20;4.13;;;2.38;;
33022;SDS011;19390;51.460;5.710;2023-04-24T06:34:48;3.35;;;2.15;;
33022;SDS011;19390;51.460;5.710;2023-04-24T06:37:15;3.78;;;2.30;;
33022;SDS011;19390;51.460;5.710;2023-04-24T06:39:41;4.80;;;2.55;;
33022;SDS011;19390;51.460;5.710;2023-04-24T06:42:07;4.53;;;2.97;;
33022;SDS011;19390;51.460;5.710;2023-04-24T06:44:34;7.03;;;3.00;;
33022;SDS011;19390;51.460;5.710;2023-04-24T06:47:05;7.07;;;3.10;;
33022;SDS011;19390;51.460;5.710;2023-04-24T06:49:38;5.35;;;3.42;;
33022;SDS011;19390;51.460;5.710;2023-04-24T06:52:04;5.57;;;3.35;;
33022;SDS011;19390;51.460;5.710;2023-04-24T06:54:30;5.05;;;2.88;;
33022;SDS011;19390;51.460;5.710;2023-04-24T06:56:56;7.00;;;3.28;;
33022;SDS011;19390;51.460;5.710;2023-04-24T06:59:22;5.47;;;2.63;;
33022;SDS011;19390;51.460;5.710;2023-04-24T07:01:49;7.22;;;3.00;;
33022;SDS011;19390;51.460;5.710;2023-04-24T07:04:16;7.63;;;3.88;;
33022;SDS011;19390;51.460;5.710;2023-04-24T07:06:41;12.13;;;4.53;;
33022;SDS011;19390;51.460;5.710;2023-04-24T07:09:08;7.65;;;5.20;;
33022;SDS011;19390;51.460;5.710;2023-04-24T07:11:34;6.15;;;5.50;;
33022;SDS011;19390;51.460;5.710;2023-04-24T07:14:00;13.63;;;9.55;;
33022;SDS011;19390;51.460;5.710;2023-04-24T07:16:26;14.77;;;9.80;;
33022;SDS011;19390;51.460;5.710;2023-04-24T07:18:52;20.20;;;11.55;;
33022;SDS011;19390;51.460;5.710;2023-04-24T07:21:17;18.63;;;12.38;;
33022;SDS011;19390;51.460;5.710;2023-04-24T07:23:43;18.13;;;13.55;;
33022;SDS011;19390;51.460;5.710;2023-04-24T07:26:08;19.42;;;13.02;;
33022;SDS011;19390;51.460;5.710;2023-04-24T07:28:34;18.17;;;11.80;;
33022;SDS011;19390;51.460;5.710;2023-04-24T07:31:00;21.33;;;14.07;;
33022;SDS011;19390;51.460;5.710;2023-04-24T07:33:26;21.88;;;13.55;;
33022;SDS011;19390;51.460;5.710;2023-04-24T07:35:51;19.60;;;14.77;;
33022;SDS011;19390;51.460;5.710;2023-04-24T07:38:17;22.73;;;15.50;;
33022;SDS011;19390;51.460;5.710;2023-04-24T07:40:46;22.00;;;14.57;;
33022;SDS011;19390;51.460;5.710;2023-04-24T07:43:12;21.42;;;14.45;;
33022;SDS011;19390;51.460;5.710;2023-04-24T07:45:38;20.77;;;14.65;;
33022;SDS011;19390;51.460;5.710;2023-04-24T07:48:04;19.58;;;12.95;;
33022;SDS011;19390;51.460;5.710;2023-04-24T07:50:30;21.42;;;12.85;;
33022;SDS011;19390;51.460;5.710;2023-04-24T07:52:56;21.10;;;13.60;;
33022;SDS011;19390;51.460;5.710;2023-04-24T07:55:21;17.92;;;12.80;;
33022;SDS011;19390;51.460;5.710;2023-04-24T07:57:47;24.90;;;15.45;;
33022;SDS011;19390;51.460;5.710;2023-04-24T08:00:13;20.02;;;12.85;;
33022;SDS011;19390;51.460;5.710;2023-04-24T08:02:39;19.20;;;13.38;;
33022;SDS011;19390;51.460;5.710;2023-04-24T08:05:04;22.75;;;11.50;;
33022;SDS011;19390;51.460;5.710;2023-04-24T08:07:30;14.27;;;9.15;;
33022;SDS011;19390;51.460;5.710;2023-04-24T08:09:56;20.55;;;11.27;;
33022;SDS011;19390;51.460;5.710;2023-04-24T08:12:22;18.27;;;10.07;;
33022;SDS011;19390;51.460;5.710;2023-04-24T08:14:47;17.00;;;8.60;;
33022;SDS011;19390;51.460;5.710;2023-04-24T08:17:13;14.52;;;8.95;;
33022;SDS011;19390;51.460;5.710;2023-04-24T08:19:40;21.58;;;8.95;;
33022;SDS011;19390;51.460;5.710;2023-04-24T08:22:13;17.25;;;8.10;;
33022;SDS011;19390;51.460;5.710;2023-04-24T08:24:39;16.60;;;8.15;;
33022;SDS011;19390;51.460;5.710;2023-04-24T08:27:05;18.25;;;8.23;;
33022;SDS011;19390;51.460;5.710;2023-04-24T08:29:30;21.33;;;8.75;;
33022;SDS011;19390;51.460;5.710;2023-04-24T08:31:56;20.60;;;9.25;;
33022;SDS011;19390;51.460;5.710;2023-04-24T08:34:22;24.33;;;10.70;;
33022;SDS011;19390;51.460;5.710;2023-04-24T08:36:48;23.42;;;10.70;;
33022;SDS011;19390;51.460;5.710;2023-04-24T08:39:14;22.35;;;9.55;;
33022;SDS011;19390;51.460;5.710;2023-04-24T08:41:41;26.02;;;10.50;;
33022;SDS011;19390;51.460;5.710;2023-04-24T08:44:11;23.60;;;9.35;;
33022;SDS011;19390;51.460;5.710;2023-04-24T08:46:39;24.20;;;11.00;;
33022;SDS011;19390;51.460;5.710;2023-04-24T08:49:05;24.20;;;10.27;;
33022;SDS011;19390;51.460;5.710;2023-04-24T08:51:31;26.20;;;10.10;;
33022;SDS011;19390;51.460;5.710;2023-04-24T08:53:57;29.70;;;12.25;;
33022;SDS011;19390;51.460;5.710;2023-04-24T08:56:22;25.92;;;11.13;;
33022;SDS011;19390;51.460;5.710;2023-04-24T08:58:53;24.83;;;9.77;;
33022;SDS011;19390;51.460;5.710;2023-04-24T09:01:20;18.13;;;9.25;;
33022;SDS011;19390;51.460;5.710;2023-04-24T09:03:46;21.58;;;10.32;;
33022;SDS011;19390;51.460;5.710;2023-04-24T09:06:14;24.67;;;10.10;;
33022;SDS011;19390;51.460;5.710;2023-04-24T09:08:41;20.15;;;8.88;;
33022;SDS011;19390;51.460;5.710;2023-04-24T09:11:08;21.25;;;8.25;;
33022;SDS011;19390;51.460;5.710;2023-04-24T09:13:36;24.98;;;10.00;;
33022;SDS011;19390;51.460;5.710;2023-04-24T09:16:02;23.15;;;7.40;;
33022;SDS011;19390;51.460;5.710;2023-04-24T09:18:28;26.27;;;7.68;;
33022;SDS011;19390;51.460;5.710;2023-04-24T09:21:00;19.60;;;6.80;;
33022;SDS011;19390;51.460;5.710;2023-04-24T09:23:28;22.33;;;6.40;;
33022;SDS011;19390;51.460;5.710;2023-04-24T09:25:55;19.75;;;5.88;;
33022;SDS011;19390;51.460;5.710;2023-04-24T09:28:25;26.08;;;7.15;;
33022;SDS011;19390;51.460;5.710;2023-04-24T09:31:07;24.75;;;6.53;;
33022;SDS011;19390;51.460;5.710;2023-04-24T09:33:53;17.88;;;7.40;;
33022;SDS011;19390;51.460;5.710;2023-04-24T09:36:32;20.45;;;7.18;;
33022;SDS011;19390;51.460;5.710;2023-04-24T09:39:06;20.63;;;6.68;;
33022;SDS011;19390;51.460;5.710;2023-04-24T09:41:46;24.13;;;7.43;;
33022;SDS011;19390;51.460;5.710;2023-04-24T09:44:15;22.58;;;7.20;;
33022;SDS011;19390;51.460;5.710;2023-04-24T09:46:51;23.50;;;7.45;;
33022;SDS011;19390;51.460;5.710;2023-04-24T09:49:25;19.25;;;7.20;;
33022;SDS011;19390;51.460;5.710;2023-04-24T09:51:52;23.50;;;6.88;;
33022;SDS011;19390;51.460;5.710;2023-04-24T09:54:27;21.08;;;6.68;;
33022;SDS011;19390;51.460;5.710;2023-04-24T09:56:54;18.25;;;6.30;;
33022;SDS011;19390;51.460;5.710;2023-04-24T09:59:21;20.30;;;5.40;;
33022;SDS011;19390;51.460;5.710;2023-04-24T10:01:48;16.95;;;5.22;;
33022;SDS011;19390;51.460;5.710;2023-04-24T10:04:18;16.40;;;4.38;;
33022;SDS011;19390;51.460;5.710;2023-04-24T10:06:45;17.10;;;4.22;;
33022;SDS011;19390;51.460;5.710;2023-04-24T10:09:12;13.43;;;4.47;;
33022;SDS011;19390;51.460;5.710;2023-04-24T10:11:42;14.27;;;4.03;;
33022;SDS011;19390;51.460;5.710;2023-04-24T10:14:13;12.35;;;3.67;;
33022;SDS011;19390;51.460;5.710;2023-04-24T10:16:43;13.55;;;3.53;;
33022;SDS011;19390;51.460;5.710;2023-04-24T10:19:11;12.82;;;3.35;;
33022;SDS011;19390;51.460;5.710;2023-04-24T10:21:38;10.75;;;3.22;;
33022;SDS011;19390;51.460;5.710;2023-04-24T10:24:07;8.70;;;2.70;;
33022;SDS011;19390;51.460;5.710;2023-04-24T10:26:34;8.93;;;2.47;;
33022;SDS011;19390;51.460;5.710;2023-04-24T10:29:00;8.65;;;2.83;;
33022;SDS011;19390;51.460;5.710;2023-04-24T10:31:26;12.57;;;3.35;;
33022;SDS011;19390;51.460;5.710;2023-04-24T10:33:55;9.88;;;2.40;;
33022;SDS011;19390;51.460;5.710;2023-04-24T10:36:23;12.30;;;3.03;;
33022;SDS011;19390;51.460;5.710;2023-04-24T10:38:51;9.98;;;2.78;;
33022;SDS011;19390;51.460;5.710;2023-04-24T10:41:20;8.23;;;2.50;;
33022;SDS011;19390;51.460;5.710;2023-04-24T10:43:48;8.68;;;2.60;;
33022;SDS011;19390;51.460;5.710;2023-04-24T10:46:29;10.32;;;2.50;;
33022;SDS011;19390;51.460;5.710;2023-04-24T10:48:55;7.93;;;2.53;;
33022;SDS011;19390;51.460;5.710;2023-04-24T10:51:21;10.63;;;2.22;;
33022;SDS011;19390;51.460;5.710;2023-04-24T10:53:49;7.72;;;1.75;;
33022;SDS011;19390;51.460;5.710;2023-04-24T10:56:15;5.78;;;1.55;;
33022;SDS011;19390;51.460;5.710;2023-04-24T10:58:42;9.73;;;1.70;;
33022;SDS011;19390;51.460;5.710;2023-04-24T11:03:53;6.93;;;1.10;;
33022;SDS011;19390;51.460;5.710;2023-04-24T11:06:30;5.63;;;1.50;;
33022;SDS011;19390;51.460;5.710;2023-04-24T11:09:08;5.40;;;1.52;;
33022;SDS011;19390;51.460;5.710;2023-04-24T11:11:36;4.18;;;1.30;;
33022;SDS011;19390;51.460;5.710;2023-04-24T11:14:05;6.10;;;1.30;;
33022;SDS011;19390;51.460;5.710;2023-04-24T11:16:33;4.20;;;1.33;;
33022;SDS011;19390;51.460;5.710;2023-04-24T11:29:37;6.32;;;0.90;;
33022;SDS011;19390;51.460;5.710;2023-04-24T11:32:18;8.02;;;1.67;;
33022;SDS011;19390;51.460;5.710;2023-04-24T11:34:48;4.55;;;1.00;;
33022;SDS011;19390;51.460;5.710;2023-04-24T11:37:15;4.63;;;1.42;;
33022;SDS011;19390;51.460;5.710;2023-04-24T11:39:41;5.93;;;1.33;;
33022;SDS011;19390;51.460;5.710;2023-04-24T11:42:07;5.60;;;1.35;;
33022;SDS011;19390;51.460;5.710;2023-04-24T11:44:34;3.17;;;0.80;;
33022;SDS011;19390;51.460;5.710;2023-04-24T11:47:02;4.18;;;0.95;;
33022;SDS011;19390;51.460;5.710;2023-04-24T11:49:32;5.93;;;1.10;;
33022;SDS011;19390;51.460;5.710;2023-04-24T11:51:57;6.00;;;1.50;;
33022;SDS011;19390;51.460;5.710;2023-04-24T11:54:24;6.60;;;1.77;;
33022;SDS011;19390;51.460;5.710;2023-04-24T11:56:50;5.88;;;1.77;;
33022;SDS011;19390;51.460;5.710;2023-04-24T11:59:16;7.35;;;1.70;;
33022;SDS011;19390;51.460;5.710;2023-04-24T12:01:45;7.13;;;1.45;;
33022;SDS011;19390;51.460;5.710;2023-04-24T12:04:11;3.78;;;1.23;;
33022;SDS011;19390;51.460;5.710;2023-04-24T12:06:37;6.47;;;1.38;;
33022;SDS011;19390;51.460;5.710;2023-04-24T12:09:03;3.45;;;1.15;;
33022;SDS011;19390;51.460;5.710;2023-04-24T12:11:29;3.28;;;1.42;;
33022;SDS011;19390;51.460;5.710;2023-04-24T12:13:55;4.50;;;1.02;;
33022;SDS011;19390;51.460;5.710;2023-04-24T12:16:20;6.85;;;1.38;;
33022;SDS011;19390;51.460;5.710;2023-04-24T12:18:46;6.60;;;1.45;;
33022;SDS011;19390;51.460;5.710;2023-04-24T12:21:15;4.97;;;1.25;;
33022;SDS011;19390;51.460;5.710;2023-04-24T12:23:47;4.00;;;1.25;;
33022;SDS011;19390;51.460;5.710;2023-04-24T12:26:17;5.65;;;1.48;;
33022;SDS011;19390;51.460;5.710;2023-04-24T12:28:45;6.63;;;1.40;;
33022;SDS011;19390;51.460;5.710;2023-04-24T12:31:13;4.97;;;1.15;;
33022;SDS011;19390;51.460;5.710;2023-04-24T12:33:39;4.55;;;0.80;;
33022;SDS011;19390;51.460;5.710;2023-04-24T12:36:05;3.90;;;1.30;;
33022;SDS011;19390;51.460;5.710;2023-04-24T12:38:31;3.95;;;1.00;;
33022;SDS011;19390;51.460;5.710;2023-04-24T12:41:23;3.38;;;1.00;;
33022;SDS011;19390;51.460;5.710;2023-04-24T12:43:52;5.57;;;1.00;;
33022;SDS011;19390;51.460;5.710;2023-04-24T12:46:18;5.93;;;0.90;;
33022;SDS011;19390;51.460;5.710;2023-04-24T12:48:44;4.88;;;1.30;;
33022;SDS011;19390;51.460;5.710;2023-04-24T12:51:09;3.42;;;0.85;;
33022;SDS011;19390;51.460;5.710;2023-04-24T12:53:35;5.88;;;1.10;;
33022;SDS011;19390;51.460;5.710;2023-04-24T12:56:01;4.25;;;1.10;;
33022;SDS011;19390;51.460;5.710;2023-04-24T12:58:27;3.83;;;1.23;;
33022;SDS011;19390;51.460;5.710;2023-04-24T13:00:52;2.05;;;1.00;;
33022;SDS011;19390;51.460;5.710;2023-04-24T13:03:19;3.67;;;1.00;;
33022;SDS011;19390;51.460;5.710;2023-04-24T13:05:44;3.50;;;0.90;;
33022;SDS011;19390;51.460;5.710;2023-04-24T13:08:10;4.38;;;0.90;;
33022;SDS011;19390;51.460;5.710;2023-04-24T13:10:36;4.15;;;0.88;;
33022;SDS011;19390;51.460;5.710;2023-04-24T13:13:01;2.75;;;0.70;;
33022;SDS011;19390;51.460;5.710;2023-04-24T13:15:28;5.70;;;0.68;;
33022;SDS011;19390;51.460;5.710;2023-04-24T13:17:53;4.38;;;0.60;;
33022;SDS011;19390;51.460;5.710;2023-04-24T13:20:19;3.70;;;0.55;;
33022;SDS011;19390;51.460;5.710;2023-04-24T13:22:45;2.40;;;0.80;;
33022;SDS011;19390;51.460;5.710;2023-04-24T13:25:10;2.75;;;0.50;;
33022;SDS011;19390;51.460;5.710;2023-04-24T13:27:38;3.03;;;0.70;;
33022;SDS011;19390;51.460;5.710;2023-04-24T13:30:04;3.50;;;0.70;;
33022;SDS011;19390;51.460;5.710;2023-04-24T13:32:30;5.10;;;1.65;;
33022;SDS011;19390;51.460;5.710;2023-04-24T13:34:57;3.35;;;1.00;;
33022;SDS011;19390;51.460;5.710;2023-04-24T13:37:22;3.83;;;0.70;;
33022;SDS011;19390;51.460;5.710;2023-04-24T13:39:48;4.30;;;1.05;;
33022;SDS011;19390;51.460;5.710;2023-04-24T13:42:13;3.20;;;0.95;;
33022;SDS011;19390;51.460;5.710;2023-04-24T13:44:39;5.32;;;1.00;;
33022;SDS011;19390;51.460;5.710;2023-04-24T13:47:06;3.78;;;1.10;;
33022;SDS011;19390;51.460;5.710;2023-04-24T13:49:32;6.30;;;1.27;;
33022;SDS011;19390;51.460;5.710;2023-04-24T13:51:57;7.35;;;1.48;;
33022;SDS011;19390;51.460;5.710;2023-04-24T13:54:23;2.80;;;0.90;;
33022;SDS011;19390;51.460;5.710;2023-04-24T13:56:50;6.85;;;1.95;;
33022;SDS011;19390;51.460;5.710;2023-04-24T13:59:16;8.13;;;1.52;;
33022;SDS011;19390;51.460;5.710;2023-04-24T14:01:42;3.25;;;1.05;;
33022;SDS011;19390;51.460;5.710;2023-04-24T14:04:09;5.70;;;1.30;;
33022;SDS011;19390;51.460;5.710;2023-04-24T14:06:35;4.60;;;1.60;;
33022;SDS011;19390;51.460;5.710;2023-04-24T14:09:00;5.15;;;1.83;;
33022;SDS011;19390;51.460;5.710;2023-04-24T14:11:26;9.77;;;1.85;;
33022;SDS011;19390;51.460;5.710;2023-04-24T14:13:52;3.20;;;1.50;;
33022;SDS011;19390;51.460;5.710;2023-04-24T14:16:21;13.77;;;2.55;;
33022;SDS011;19390;51.460;5.710;2023-04-24T14:18:47;4.45;;;1.73;;
33022;SDS011;19390;51.460;5.710;2023-04-24T14:21:12;9.35;;;2.53;;
33022;SDS011;19390;51.460;5.710;2023-04-24T14:23:38;10.30;;;2.40;;
33022;SDS011;19390;51.460;5.710;2023-04-24T14:26:03;6.47;;;1.85;;
33022;SDS011;19390;51.460;5.710;2023-04-24T14:28:29;9.10;;;2.28;;
33022;SDS011;19390;51.460;5.710;2023-04-24T14:30:55;5.32;;;1.80;;
33022;SDS011;19390;51.460;5.710;2023-04-24T14:33:21;7.00;;;2.42;;
33022;SDS011;19390;51.460;5.710;2023-04-24T14:35:46;4.47;;;1.65;;
33022;SDS011;19390;51.460;5.710;2023-04-24T14:38:12;5.30;;;1.65;;
33022;SDS011;19390;51.460;5.710;2023-04-24T14:40:38;5.85;;;1.80;;
33022;SDS011;19390;51.460;5.710;2023-04-24T14:43:05;5.90;;;1.80;;